Time;durP1;ratioP1;P1;durP2;ratioP2;P2;SDS_P1;SDS_P2;PMS_P1;PMS_P2;Temp;Humidity;BMP_temperature;BMP_pressure;BME280_temperature;BME280_humidity;BME280_pressure;Samples;Min_cycle;Max_cycle;Signal;HPM_P1;HPM_P2
2022/12/14 00:01:20;;;;;;;9.25;8.45;;;;;;;;;;5011023;28;20128;-65
2022/12/14 00:03:46;;;;;;;8.90;8.30;;;;;;;;;;5009219;28;20050;-65
2022/12/14 00:06:29;;;;;;;8.82;8.23;;;;;;;;;;5013472;28;20038;-64
2022/12/14 00:08:58;;;;;;;9.82;9.13;;;;;;;;;;5015324;28;20060;-64
2022/12/14 00:11:23;;;;;;;10.32;9.52;;;;;;;;;;5020295;28;20038;-64
2022/12/14 00:14:00;;;;;;;9.82;8.85;;;;;;;;;;5015156;28;20620;-64
2022/12/14 00:16:28;;;;;;;9.05;8.45;;;;;;;;;;5015677;28;20533;-64
2022/12/14 00:18:55;;;;;;;9.80;9.00;;;;;;;;;;5013812;28;20033;-64
2022/12/14 00:21:21;;;;;;;9.43;8.82;;;;;;;;;;5015338;28;20029;-64
2022/12/14 00:23:49;;;;;;;10.27;9.52;;;;;;;;;;5012358;28;20045;-64
2022/12/14 00:26:20;;;;;;;11.02;8.90;;;;;;;;;;5012367;28;20117;-64
2022/12/14 00:28:46;;;;;;;;;;;;;;;;;;5007577;28;20363;-64
2022/12/14 00:31:12;;;;;;;9.02;8.43;;;;;;;;;;5012463;28;19925;-64
2022/12/14 00:33:38;;;;;;;9.75;9.05;;;;;;;;;;5010170;28;20033;-64
2022/12/14 00:36:05;;;;;;;12.18;9.60;;;;;;;;;;5012311;28;20383;-64
2022/12/14 00:38:31;;;;;;;9.55;8.75;;;;;;;;;;5011735;28;20050;-64
2022/12/14 00:40:57;;;;;;;9.07;8.43;;;;;;;;;;5011424;28;20048;-64
2022/12/14 00:43:23;;;;;;;11.02;10.15;;;;;;;;;;5010275;28;20057;-63
2022/12/14 00:45:48;;;;;;;10.20;9.55;;;;;;;;;;5014635;28;20069;-64
2022/12/14 00:48:15;;;;;;;9.63;8.95;;;;;;;;;;5014048;28;20694;-63
2022/12/14 00:50:42;;;;;;;9.45;8.82;;;;;;;;;;5018715;28;20452;-64
2022/12/14 00:53:08;;;;;;;8.75;8.15;;;;;;;;;;5012305;28;20044;-64
2022/12/14 00:55:38;;;;;;;9.13;8.45;;;;;;;;;;5011186;28;20394;-64
2022/12/14 00:58:04;;;;;;;9.00;8.40;;;;;;;;;;5015053;28;20045;-64
2022/12/14 01:00:29;;;;;;;9.15;8.55;;;;;;;;;;5012905;28;20029;-64
2022/12/14 01:02:54;;;;;;;9.77;9.15;;;;;;;;;;5011326;28;20065;-63
2022/12/14 01:05:20;;;;;;;8.52;7.93;;;;;;;;;;5011995;28;20554;-63
2022/12/14 01:07:45;;;;;;;8.95;8.25;;;;;;;;;;5006945;28;20029;-63
2022/12/14 01:10:11;;;;;;;10.25;9.13;;;;;;;;;;5014369;28;20510;-63
2022/12/14 01:12:36;;;;;;;8.90;8.30;;;;;;;;;;5015527;28;20038;-63
2022/12/14 01:15:02;;;;;;;9.00;8.40;;;;;;;;;;5016787;28;20037;-63
2022/12/14 01:17:27;;;;;;;9.68;8.75;;;;;;;;;;5015668;28;20179;-63
2022/12/14 01:19:53;;;;;;;9.95;9.25;;;;;;;;;;5012002;28;20029;-63
2022/12/14 01:22:18;;;;;;;9.63;8.93;;;;;;;;;;5016836;28;20495;-63
2022/12/14 01:24:43;;;;;;;9.82;8.93;;;;;;;;;;5015875;28;20121;-63
2022/12/14 01:27:09;;;;;;;9.77;9.07;;;;;;;;;;5015548;28;20098;-63
2022/12/14 01:29:34;;;;;;;9.02;8.43;;;;;;;;;;5016934;28;20030;-63
2022/12/14 01:32:00;;;;;;;10.15;9.35;;;;;;;;;;5016578;28;20037;-63
2022/12/14 01:34:25;;;;;;;8.02;7.53;;;;;;;;;;5016839;28;20029;-63
2022/12/14 01:36:50;;;;;;;10.18;9.48;;;;;;;;;;5014858;28;20034;-63
2022/12/14 01:39:16;;;;;;;9.50;8.70;;;;;;;;;;5019083;28;20037;-63
2022/12/14 01:41:48;;;;;;;9.52;8.80;;;;;;;;;;5013462;28;20028;-63
2022/12/14 01:44:13;;;;;;;8.38;7.78;;;;;;;;;;5014249;28;20049;-63
2022/12/14 01:47:03;;;;;;;9.23;8.48;;;;;;;;;;5012528;28;20038;-63
2022/12/14 01:50:10;;;;;;;8.43;7.88;;;;;;;;;;5016578;28;20033;-64
2022/12/14 01:52:41;;;;;;;8.77;8.18;;;;;;;;;;5016758;28;20053;-63
2022/12/14 01:55:12;;;;;;;22.15;13.63;;;;;;;;;;5013951;28;20041;-65
2022/12/14 01:57:45;;;;;;;8.98;8.38;;;;;;;;;;5014522;28;20038;-65
2022/12/14 02:00:15;;;;;;;8.52;7.95;;;;;;;;;;5015589;28;20039;-63
2022/12/14 02:02:47;;;;;;;9.48;8.75;;;;;;;;;;5017589;28;20073;-64
2022/12/14 02:05:14;;;;;;;8.32;7.72;;;;;;;;;;5013899;28;20389;-63
2022/12/14 02:07:43;;;;;;;8.73;8.13;;;;;;;;;;5012835;28;20117;-63
2022/12/14 02:10:09;;;;;;;8.18;7.68;;;;;;;;;;5018355;28;20104;-66
2022/12/14 02:12:43;;;;;;;8.38;7.78;;;;;;;;;;5013988;28;20467;-63
2022/12/14 02:15:09;;;;;;;8.95;8.35;;;;;;;;;;5015357;28;20474;-64
2022/12/14 02:17:34;;;;;;;8.80;8.20;;;;;;;;;;5015497;28;20037;-63
2022/12/14 02:20:01;;;;;;;9.35;8.75;;;;;;;;;;5013837;28;20067;-64
2022/12/14 02:22:51;;;;;;;9.10;8.50;;;;;;;;;;5014411;28;20866;-65
2022/12/14 02:25:19;;;;;;;9.05;8.45;;;;;;;;;;5011677;28;20775;-63
2022/12/14 02:28:12;;;;;;;7.93;7.43;;;;;;;;;;5016985;28;20099;-63
2022/12/14 02:30:40;;;;;;;8.50;7.90;;;;;;;;;;5016560;28;20045;-63
2022/12/14 02:33:16;;;;;;;8.65;8.05;;;;;;;;;;5014466;28;20049;-63
2022/12/14 02:35:54;;;;;;;9.10;8.50;;;;;;;;;;5013563;28;20065;-63
2022/12/14 02:38:48;;;;;;;8.35;7.75;;;;;;;;;;5013277;28;20118;-65
2022/12/14 02:41:41;;;;;;;9.15;8.45;;;;;;;;;;5019898;28;20120;-64
2022/12/14 02:44:33;;;;;;;12.88;8.13;;;;;;;;;;5016484;28;20049;-63
2022/12/14 02:46:58;;;;;;;;;;;;;;;;;;5014098;28;20497;-64
2022/12/14 02:49:51;;;;;;;9.05;8.45;;;;;;;;;;5016003;28;19983;-63
2022/12/14 02:52:28;;;;;;;9.65;9.05;;;;;;;;;;5014912;28;20048;-63
2022/12/14 02:55:05;;;;;;;8.02;7.53;;;;;;;;;;5012834;28;20570;-63
2022/12/14 02:57:34;;;;;;;8.82;8.23;;;;;;;;;;5022792;28;20124;-63
2022/12/14 03:00:02;;;;;;;8.77;8.18;;;;;;;;;;5014218;28;20025;-63
2022/12/14 03:02:29;;;;;;;9.23;8.52;;;;;;;;;;5016967;28;20052;-63
2022/12/14 03:04:55;;;;;;;10.10;9.40;;;;;;;;;;5014621;28;20038;-63
2022/12/14 03:07:33;;;;;;;8.45;7.85;;;;;;;;;;5011069;28;20050;-64
2022/12/14 03:10:06;;;;;;;9.38;8.70;;;;;;;;;;5011996;28;20038;-63
2022/12/14 03:12:32;;;;;;;11.23;10.20;;;;;;;;;;5021887;28;20115;-63
2022/12/14 03:14:58;;;;;;;8.68;8.07;;;;;;;;;;5012283;28;20029;-63
2022/12/14 03:17:26;;;;;;;8.85;8.25;;;;;;;;;;5016138;28;20053;-63
2022/12/14 03:19:57;;;;;;;9.07;8.48;;;;;;;;;;5014302;28;20033;-63
2022/12/14 03:22:27;;;;;;;9.27;8.57;;;;;;;;;;5013092;28;20686;-63
2022/12/14 03:25:19;;;;;;;9.38;8.68;;;;;;;;;;5015893;28;20042;-61
2022/12/14 03:27:52;;;;;;;8.85;8.25;;;;;;;;;;5010620;28;20609;-63
2022/12/14 03:30:18;;;;;;;8.68;8.07;;;;;;;;;;5012995;28;20390;-63
2022/12/14 03:32:49;;;;;;;8.68;8.07;;;;;;;;;;5010726;28;20026;-65
2022/12/14 03:35:22;;;;;;;9.13;8.43;;;;;;;;;;5013341;28;20171;-64
2022/12/14 03:37:53;;;;;;;9.32;8.65;;;;;;;;;;5014977;28;20036;-63
2022/12/14 03:40:28;;;;;;;8.95;8.27;;;;;;;;;;5011952;28;20475;-64
2022/12/14 03:43:08;;;;;;;9.80;9.10;;;;;;;;;;5010343;28;20407;-64
2022/12/14 03:45:52;;;;;;;9.73;8.88;;;;;;;;;;5011413;28;20032;-64
2022/12/14 03:48:50;;;;;;;9.00;8.40;;;;;;;;;;5010066;28;20088;-63
2022/12/14 03:51:34;;;;;;;8.75;8.15;;;;;;;;;;5012538;28;20037;-64
2022/12/14 03:54:11;;;;;;;9.93;9.13;;;;;;;;;;5010853;28;20029;-64
2022/12/14 03:56:46;;;;;;;9.52;8.90;;;;;;;;;;5009705;28;20077;-64
2022/12/14 03:59:21;;;;;;;10.07;9.38;;;;;;;;;;5008801;28;20137;-64
2022/12/14 04:02:00;;;;;;;8.15;7.65;;;;;;;;;;5011354;28;20041;-64
2022/12/14 04:04:32;;;;;;;10.05;9.35;;;;;;;;;;5010239;28;20026;-64
2022/12/14 04:07:09;;;;;;;19.63;9.00;;;;;;;;;;5010410;28;20037;-64
2022/12/14 04:09:45;;;;;;;9.43;8.63;;;;;;;;;;5013466;28;20136;-64
2022/12/14 04:20:52;;;;;;;9.25;8.60;;;;;;;;;;5009549;28;20540;-63
2022/12/14 04:26:14;;;;;;;8.80;8.20;;;;;;;;;;5012017;28;20038;-63
2022/12/14 04:31:48;;;;;;;8.60;8.00;;;;;;;;;;5007095;28;20060;-63
2022/12/14 04:34:14;;;;;;;;;;;;;;;;;;5012190;28;20032;-63
2022/12/14 04:36:52;;;;;;;8.77;8.18;;;;;;;;;;5010328;28;20014;-63
2022/12/14 04:39:26;;;;;;;8.90;8.30;;;;;;;;;;5012934;28;20041;-63
2022/12/14 04:41:55;;;;;;;9.23;8.45;;;;;;;;;;5011996;28;20033;-63
2022/12/14 04:44:29;;;;;;;10.45;9.75;;;;;;;;;;5009867;28;20419;-65
2022/12/14 04:46:57;;;;;;;10.20;9.27;;;;;;;;;;5017140;28;20500;-65
2022/12/14 04:49:29;;;;;;;9.77;9.07;;;;;;;;;;5018656;28;20042;-63
2022/12/14 04:52:04;;;;;;;9.65;8.95;;;;;;;;;;5018361;28;20535;-63
2022/12/14 04:54:30;;;;;;;9.93;9.23;;;;;;;;;;5017129;28;20045;-63
2022/12/14 04:57:03;;;;;;;9.85;8.98;;;;;;;;;;5014427;28;20029;-63
2022/12/14 04:59:31;;;;;;;10.88;9.95;;;;;;;;;;5018058;28;20112;-63
2022/12/14 05:02:07;;;;;;;9.90;9.20;;;;;;;;;;5017784;28;20055;-63
2022/12/14 05:04:53;;;;;;;9.15;8.45;;;;;;;;;;5014082;28;20041;-63
2022/12/14 05:07:28;;;;;;;9.85;9.13;;;;;;;;;;5018751;28;20120;-63
2022/12/14 05:09:59;;;;;;;11.02;10.10;;;;;;;;;;5014581;28;20079;-63
2022/12/14 05:12:31;;;;;;;10.15;9.27;;;;;;;;;;5017243;28;20040;-63
2022/12/14 05:15:11;;;;;;;9.93;9.32;;;;;;;;;;5018043;28;20034;-63
2022/12/14 05:17:38;;;;;;;10.07;9.38;;;;;;;;;;5015712;28;20046;-63
2022/12/14 05:20:04;;;;;;;8.90;8.30;;;;;;;;;;5014161;28;20107;-63
2022/12/14 05:22:30;;;;;;;10.15;9.45;;;;;;;;;;5016253;28;20058;-63
2022/12/14 05:24:55;;;;;;;9.30;8.70;;;;;;;;;;5017494;28;20060;-63
2022/12/14 05:27:20;;;;;;;9.23;8.63;;;;;;;;;;5013666;28;20033;-63
2022/12/14 05:29:46;;;;;;;10.80;9.75;;;;;;;;;;5015866;28;20048;-63
2022/12/14 05:32:12;;;;;;;11.35;10.30;;;;;;;;;;5016823;28;20558;-63
2022/12/14 05:34:37;;;;;;;9.20;8.57;;;;;;;;;;5016316;28;20037;-64
2022/12/14 05:37:03;;;;;;;9.82;9.23;;;;;;;;;;5012638;28;20375;-64
2022/12/14 05:39:30;;;;;;;11.02;9.98;;;;;;;;;;5011892;28;20045;-64
2022/12/14 05:41:56;;;;;;;9.68;9.00;;;;;;;;;;5015577;28;20028;-64
2022/12/14 05:44:21;;;;;;;9.07;8.48;;;;;;;;;;5016808;28;20124;-64
2022/12/14 05:46:46;;;;;;;9.27;8.68;;;;;;;;;;5015318;28;20121;-63
2022/12/14 05:49:12;;;;;;;10.18;9.48;;;;;;;;;;5014577;28;20120;-64
2022/12/14 05:51:37;;;;;;;9.77;9.02;;;;;;;;;;5016941;28;20384;-63
2022/12/14 05:54:04;;;;;;;9.60;8.90;;;;;;;;;;5018173;28;20033;-64
2022/12/14 05:56:29;;;;;;;9.18;8.57;;;;;;;;;;5013801;28;20427;-64
2022/12/14 05:58:55;;;;;;;9.48;8.88;;;;;;;;;;5013328;28;20025;-63
2022/12/14 06:01:20;;;;;;;9.45;8.85;;;;;;;;;;5015264;28;20121;-63
2022/12/14 06:03:46;;;;;;;8.95;8.25;;;;;;;;;;5014015;28;20041;-63
2022/12/14 06:06:13;;;;;;;8.75;8.15;;;;;;;;;;5016690;28;20034;-64
2022/12/14 06:08:42;;;;;;;10.57;9.70;;;;;;;;;;5016137;28;20044;-64
2022/12/14 06:11:13;;;;;;;13.90;12.63;;;;;;;;;;5015922;28;20049;-64
2022/12/14 06:13:41;;;;;;;11.73;10.70;;;;;;;;;;5018977;28;20057;-64
2022/12/14 06:16:12;;;;;;;9.15;8.55;;;;;;;;;;5015502;28;20029;-64
2022/12/14 06:18:58;;;;;;;9.27;8.68;;;;;;;;;;5014994;28;20045;-64
2022/12/14 06:21:28;;;;;;;10.07;9.40;;;;;;;;;;5015204;28;20037;-63
2022/12/14 06:23:55;;;;;;;9.95;9.25;;;;;;;;;;5016656;28;20038;-63
2022/12/14 06:26:21;;;;;;;10.18;9.38;;;;;;;;;;5012388;28;20034;-62
2022/12/14 06:28:46;;;;;;;9.90;8.90;;;;;;;;;;5013023;28;20112;-63
2022/12/14 06:31:21;;;;;;;10.95;10.05;;;;;;;;;;5012756;28;20128;-63
2022/12/14 06:33:47;;;;;;;10.27;9.57;;;;;;;;;;5013371;28;20152;-63
2022/12/14 06:36:22;;;;;;;9.68;8.98;;;;;;;;;;5016297;28;20034;-62
2022/12/14 06:38:52;;;;;;;9.82;8.95;;;;;;;;;;5015521;28;20029;-62
2022/12/14 06:41:19;;;;;;;10.82;10.05;;;;;;;;;;5015974;28;20030;-63
2022/12/14 06:43:44;;;;;;;9.18;8.57;;;;;;;;;;5016090;28;20030;-62
2022/12/14 06:46:12;;;;;;;8.93;8.32;;;;;;;;;;5017574;28;20451;-62
2022/12/14 06:48:38;;;;;;;10.20;9.43;;;;;;;;;;5030309;28;20033;-63
2022/12/14 06:51:05;;;;;;;9.15;8.55;;;;;;;;;;5013952;28;20041;-63
2022/12/14 06:53:31;;;;;;;9.70;9.10;;;;;;;;;;5016530;28;20099;-64
2022/12/14 06:56:10;;;;;;;8.98;8.38;;;;;;;;;;5012669;28;20031;-62
2022/12/14 06:58:37;;;;;;;10.45;9.73;;;;;;;;;;5012857;28;20030;-63
2022/12/14 07:01:07;;;;;;;9.55;8.95;;;;;;;;;;5017796;28;20628;-63
2022/12/14 07:03:33;;;;;;;8.82;8.18;;;;;;;;;;5018062;28;20864;-64
2022/12/14 07:06:00;;;;;;;10.07;9.32;;;;;;;;;;5015622;28;20029;-65
2022/12/14 07:08:26;;;;;;;10.07;9.10;;;;;;;;;;5013108;28;20050;-63
2022/12/14 07:10:52;;;;;;;10.70;9.90;;;;;;;;;;5014796;28;20038;-63
2022/12/14 07:13:18;;;;;;;9.85;9.15;;;;;;;;;;5014387;28;20072;-63
2022/12/14 07:15:43;;;;;;;9.63;8.93;;;;;;;;;;5011695;28;20080;-62
2022/12/14 07:18:09;;;;;;;9.18;8.57;;;;;;;;;;5015977;28;20103;-64
2022/12/14 07:20:34;;;;;;;10.13;9.40;;;;;;;;;;5012695;28;20029;-63
2022/12/14 07:22:59;;;;;;;10.82;10.02;;;;;;;;;;5012349;28;20057;-63
2022/12/14 07:25:25;;;;;;;8.85;8.25;;;;;;;;;;5012877;28;20040;-64
2022/12/14 07:27:50;;;;;;;10.65;9.85;;;;;;;;;;5009905;28;20026;-64
2022/12/14 07:30:16;;;;;;;8.50;7.90;;;;;;;;;;5012484;28;20036;-64
2022/12/14 07:32:41;;;;;;;8.77;8.18;;;;;;;;;;5015382;28;20065;-64
2022/12/14 07:35:07;;;;;;;10.27;9.57;;;;;;;;;;5016507;28;20033;-65
2022/12/14 07:37:33;;;;;;;9.77;8.95;;;;;;;;;;5013002;28;20075;-65
2022/12/14 07:39:58;;;;;;;11.20;10.45;;;;;;;;;;5010981;28;20040;-65
2022/12/14 07:42:23;;;;;;;8.70;8.10;;;;;;;;;;5011805;28;20117;-64
2022/12/14 07:44:49;;;;;;;9.20;8.60;;;;;;;;;;5012467;28;20104;-65
2022/12/14 07:47:14;;;;;;;10.82;10.07;;;;;;;;;;5011397;28;20567;-65
2022/12/14 07:49:39;;;;;;;9.35;8.75;;;;;;;;;;5010460;28;20045;-65
2022/12/14 07:52:05;;;;;;;10.32;9.52;;;;;;;;;;5013000;28;20065;-65
2022/12/14 07:54:30;;;;;;;9.50;8.80;;;;;;;;;;5010604;28;20092;-65
2022/12/14 07:56:55;;;;;;;9.75;9.05;;;;;;;;;;5010405;28;20037;-64
2022/12/14 07:59:21;;;;;;;9.88;9.18;;;;;;;;;;5011923;28;20029;-63
2022/12/14 08:01:46;;;;;;;9.60;8.93;;;;;;;;;;5013623;28;20077;-63
2022/12/14 08:04:14;;;;;;;9.07;8.48;;;;;;;;;;5012053;28;20410;-64
2022/12/14 08:06:40;;;;;;;10.82;10.05;;;;;;;;;;5011558;28;20030;-63
2022/12/14 08:09:06;;;;;;;10.13;9.40;;;;;;;;;;5012822;28;20036;-62
2022/12/14 08:11:32;;;;;;;10.25;9.55;;;;;;;;;;5013049;28;20033;-62
2022/12/14 08:14:03;;;;;;;11.40;10.52;;;;;;;;;;5012210;28;20568;-63
2022/12/14 08:16:30;;;;;;;10.38;9.68;;;;;;;;;;5012471;28;20455;-62
2022/12/14 08:18:57;;;;;;;10.82;10.07;;;;;;;;;;5002635;28;20040;-61
2022/12/14 08:21:23;;;;;;;10.93;10.13;;;;;;;;;;5010823;28;20696;-61
2022/12/14 08:23:50;;;;;;;9.82;9.23;;;;;;;;;;5011769;28;20447;-61
2022/12/14 08:26:16;;;;;;;10.98;10.15;;;;;;;;;;5013535;28;20026;-61
2022/12/14 08:28:42;;;;;;;9.80;9.15;;;;;;;;;;5012693;28;20021;-61
2022/12/14 08:31:11;;;;;;;11.80;10.93;;;;;;;;;;5011483;28;20411;-60
2022/12/14 08:33:38;;;;;;;11.70;10.82;;;;;;;;;;5013721;28;20127;-61
2022/12/14 08:36:15;;;;;;;10.40;9.70;;;;;;;;;;5011484;28;20056;-61
2022/12/14 08:38:41;;;;;;;11.65;10.77;;;;;;;;;;5012977;28;20288;-60
2022/12/14 08:41:12;;;;;;;9.68;9.00;;;;;;;;;;5011070;28;20018;-61
2022/12/14 08:43:39;;;;;;;10.38;9.68;;;;;;;;;;5013061;28;20061;-61
2022/12/14 08:46:05;;;;;;;10.40;9.70;;;;;;;;;;5012926;28;20045;-61
2022/12/14 08:48:30;;;;;;;10.65;9.93;;;;;;;;;;5011623;28;20044;-61
2022/12/14 08:51:07;;;;;;;9.45;8.82;;;;;;;;;;5010396;28;20831;-61
2022/12/14 08:53:34;;;;;;;9.40;8.80;;;;;;;;;;5014489;28;20076;-61
2022/12/14 08:56:04;;;;;;;10.70;9.90;;;;;;;;;;5010634;28;20455;-61
2022/12/14 08:58:30;;;;;;;10.30;9.60;;;;;;;;;;5010502;28;20029;-61
2022/12/14 09:01:04;;;;;;;9.50;8.88;;;;;;;;;;5012085;28;20088;-61
2022/12/14 09:03:30;;;;;;;9.18;8.57;;;;;;;;;;5014392;28;20033;-61
2022/12/14 09:05:56;;;;;;;10.98;10.07;;;;;;;;;;5011052;28;20037;-62
2022/12/14 09:08:21;;;;;;;10.15;9.32;;;;;;;;;;5012059;28;20658;-62
2022/12/14 09:10:50;;;;;;;10.00;9.27;;;;;;;;;;5010143;28;20029;-62
2022/12/14 09:13:17;;;;;;;8.68;8.10;;;;;;;;;;5010670;28;20038;-62
2022/12/14 09:15:42;;;;;;;9.50;8.90;;;;;;;;;;5006031;28;20128;-61
2022/12/14 09:18:08;;;;;;;10.27;9.48;;;;;;;;;;5010910;28;20160;-61
2022/12/14 09:20:33;;;;;;;9.48;8.88;;;;;;;;;;5011295;28;20045;-61
2022/12/14 09:22:59;;;;;;;10.30;9.40;;;;;;;;;;5009291;28;20048;-61
2022/12/14 09:25:24;;;;;;;9.82;9.23;;;;;;;;;;5009683;28;20125;-62
2022/12/14 09:27:49;;;;;;;11.50;10.60;;;;;;;;;;5009248;28;20045;-62
2022/12/14 09:30:15;;;;;;;9.93;9.25;;;;;;;;;;5012905;28;20064;-62
2022/12/14 09:32:42;;;;;;;8.82;8.23;;;;;;;;;;5016246;28;20022;-61
2022/12/14 09:35:07;;;;;;;9.48;8.77;;;;;;;;;;5012403;28;20120;-62
2022/12/14 09:37:33;;;;;;;15.13;10.00;;;;;;;;;;5015025;28;21251;-61
2022/12/14 09:39:58;;;;;;;8.75;8.15;;;;;;;;;;5011927;28;20033;-62
2022/12/14 09:42:52;;;;;;;10.55;9.80;;;;;;;;;;5015053;28;20518;-61
2022/12/14 09:45:23;;;;;;;10.27;9.40;;;;;;;;;;5013269;28;20061;-62
2022/12/14 09:47:55;;;;;;;10.43;9.73;;;;;;;;;;5010760;28;20025;-62
2022/12/14 09:50:22;;;;;;;12.77;9.88;;;;;;;;;;5011831;28;20038;-62
2022/12/14 09:52:51;;;;;;;8.88;8.27;;;;;;;;;;5009521;28;20029;-61
2022/12/14 09:55:19;;;;;;;10.50;9.70;;;;;;;;;;5014980;28;20047;-62
2022/12/14 09:57:46;;;;;;;11.40;10.55;;;;;;;;;;5013276;28;20037;-62
2022/12/14 10:00:19;;;;;;;10.35;9.57;;;;;;;;;;5015337;28;20030;-62
2022/12/14 10:03:16;;;;;;;10.18;9.48;;;;;;;;;;5017179;28;20120;-61
2022/12/14 10:06:00;;;;;;;9.60;8.98;;;;;;;;;;5019113;28;20037;-62
2022/12/14 10:08:40;;;;;;;9.02;8.43;;;;;;;;;;5014503;28;20458;-61
2022/12/14 10:11:15;;;;;;;10.10;9.40;;;;;;;;;;5018033;28;20042;-61
2022/12/14 10:14:17;;;;;;;10.20;9.48;;;;;;;;;;5021843;28;20506;-62
2022/12/14 10:17:04;;;;;;;10.63;9.82;;;;;;;;;;5013456;28;20049;-62
2022/12/14 10:19:56;;;;;;;8.93;8.32;;;;;;;;;;5015263;28;20072;-61
2022/12/14 10:22:31;;;;;;;10.10;9.38;;;;;;;;;;5015888;28;20065;-62
2022/12/14 10:25:15;;;;;;;10.15;9.45;;;;;;;;;;5011486;28;20794;-61
2022/12/14 10:27:47;;;;;;;11.35;10.45;;;;;;;;;;5011879;28;20376;-62
2022/12/14 10:30:20;;;;;;;11.77;10.88;;;;;;;;;;5015423;28;20528;-61
2022/12/14 10:32:53;;;;;;;9.77;9.07;;;;;;;;;;5015409;28;20430;-61
2022/12/14 10:35:25;;;;;;;12.05;10.98;;;;;;;;;;5013669;28;20026;-62
2022/12/14 10:38:05;;;;;;;9.85;8.90;;;;;;;;;;5012126;28;20080;-62
2022/12/14 10:40:32;;;;;;;9.18;8.57;;;;;;;;;;5014061;28;20471;-61
2022/12/14 10:43:00;;;;;;;9.18;8.57;;;;;;;;;;5014361;28;20042;-61
2022/12/14 10:46:03;;;;;;;10.05;9.35;;;;;;;;;;5013590;28;20784;-61
2022/12/14 10:48:36;;;;;;;11.73;10.85;;;;;;;;;;5013908;28;20091;-61
2022/12/14 10:51:43;;;;;;;10.38;9.68;;;;;;;;;;5016071;28;20030;-61
2022/12/14 10:54:17;;;;;;;9.93;9.23;;;;;;;;;;5011260;28;20040;-62
2022/12/14 10:56:44;;;;;;;10.60;9.55;;;;;;;;;;5011854;28;20052;-60
2022/12/14 10:59:21;;;;;;;10.80;10.00;;;;;;;;;;5011023;28;20095;-61
2022/12/14 11:02:07;;;;;;;9.68;9.02;;;;;;;;;;5013495;28;20624;-61
2022/12/14 11:04:36;;;;;;;9.25;8.65;;;;;;;;;;5014729;28;20046;-61
2022/12/14 11:07:09;;;;;;;9.82;9.23;;;;;;;;;;5015044;28;20160;-61
2022/12/14 11:09:36;;;;;;;10.02;9.32;;;;;;;;;;5022249;28;20038;-61
2022/12/14 11:12:05;;;;;;;11.10;10.30;;;;;;;;;;5012372;28;20038;-60
2022/12/14 11:14:31;;;;;;;11.27;10.45;;;;;;;;;;5014234;28;20021;-60
2022/12/14 11:16:56;;;;;;;12.23;10.43;;;;;;;;;;5013920;28;20029;-61
2022/12/14 11:19:24;;;;;;;10.95;10.20;;;;;;;;;;5016711;28;20477;-62
2022/12/14 11:22:03;;;;;;;9.13;8.52;;;;;;;;;;5010217;28;20057;-61
2022/12/14 11:24:28;;;;;;;9.43;8.82;;;;;;;;;;5012746;28;20029;-63
2022/12/14 11:26:59;;;;;;;10.00;9.40;;;;;;;;;;5009086;28;20091;-63
2022/12/14 11:29:31;;;;;;;11.52;10.63;;;;;;;;;;5013395;28;20036;-62
2022/12/14 11:31:56;;;;;;;10.88;10.15;;;;;;;;;;5012076;28;20045;-63
2022/12/14 11:34:34;;;;;;;11.02;10.13;;;;;;;;;;5008127;28;20041;-61
2022/12/14 11:37:30;;;;;;;11.85;10.85;;;;;;;;;;5012614;28;20095;-63
2022/12/14 11:40:02;;;;;;;10.55;9.80;;;;;;;;;;5008822;28;21295;-62
2022/12/14 11:42:28;;;;;;;11.35;10.45;;;;;;;;;;5012477;28;20048;-62
2022/12/14 11:44:53;;;;;;;10.07;9.43;;;;;;;;;;5010085;28;20034;-63
2022/12/14 11:47:22;;;;;;;10.65;9.95;;;;;;;;;;5009400;28;20052;-62
2022/12/14 11:49:50;;;;;;;12.05;11.25;;;;;;;;;;5010428;28;20488;-63
2022/12/14 11:52:25;;;;;;;10.98;10.18;;;;;;;;;;5009079;28;20491;-63
2022/12/14 11:54:53;;;;;;;10.68;9.88;;;;;;;;;;5011605;28;20026;-62
2022/12/14 11:57:26;;;;;;;10.52;9.82;;;;;;;;;;5009665;28;20050;-63
2022/12/14 11:59:55;;;;;;;10.95;10.25;;;;;;;;;;5010260;28;20088;-61
2022/12/14 12:02:27;;;;;;;9.95;9.25;;;;;;;;;;5012766;28;20120;-61
2022/12/14 12:04:58;;;;;;;10.40;9.60;;;;;;;;;;5013134;28;20463;-62
2022/12/14 12:07:29;;;;;;;11.63;10.77;;;;;;;;;;5011770;28;20034;-62
2022/12/14 12:09:59;;;;;;;11.25;10.45;;;;;;;;;;5010433;28;20033;-63
2022/12/14 12:12:26;;;;;;;9.27;8.65;;;;;;;;;;5012528;28;20048;-62
2022/12/14 12:14:54;;;;;;;9.98;9.27;;;;;;;;;;5010810;28;20056;-62
2022/12/14 12:17:36;;;;;;;10.90;9.77;;;;;;;;;;5013596;28;20033;-62
2022/12/14 12:20:07;;;;;;;11.07;10.23;;;;;;;;;;5009592;28;20034;-62
2022/12/14 12:22:46;;;;;;;11.35;10.55;;;;;;;;;;5011078;28;20061;-63
2022/12/14 12:25:13;;;;;;;9.80;9.13;;;;;;;;;;5012014;28;20278;-62
2022/12/14 12:27:40;;;;;;;12.05;10.85;;;;;;;;;;5010902;28;20033;-62
2022/12/14 12:30:16;;;;;;;11.25;10.45;;;;;;;;;;5010611;28;20037;-62
2022/12/14 12:32:48;;;;;;;10.20;9.60;;;;;;;;;;5011766;28;20033;-62
2022/12/14 12:35:16;;;;;;;10.35;9.63;;;;;;;;;;5012124;28;20612;-61
2022/12/14 12:37:54;;;;;;;9.93;9.02;;;;;;;;;;5010668;28;20029;-63
2022/12/14 12:40:28;;;;;;;10.02;9.43;;;;;;;;;;5015877;28;20040;-63
2022/12/14 12:43:16;;;;;;;10.93;10.18;;;;;;;;;;5013398;28;20045;-62
2022/12/14 12:45:50;;;;;;;9.20;8.60;;;;;;;;;;5011514;28;20034;-62
2022/12/14 12:48:25;;;;;;;10.65;9.85;;;;;;;;;;5012192;28;20475;-52
2022/12/14 12:50:55;;;;;;;11.73;10.23;;;;;;;;;;5015922;28;20038;-53
2022/12/14 12:53:25;;;;;;;10.60;9.80;;;;;;;;;;5016967;28;20045;-54
2022/12/14 12:55:55;;;;;;;10.88;10.07;;;;;;;;;;5015140;28;20025;-52
2022/12/14 12:58:25;;;;;;;9.57;8.95;;;;;;;;;;5010449;28;20054;-53
2022/12/14 13:00:54;;;;;;;9.40;8.80;;;;;;;;;;5013415;28;20537;-53
2022/12/14 13:03:27;;;;;;;10.00;9.30;;;;;;;;;;5014313;28;20034;-54
2022/12/14 13:05:55;;;;;;;10.60;9.90;;;;;;;;;;5013396;28;20048;-54
2022/12/14 13:08:33;;;;;;;12.25;10.95;;;;;;;;;;5015709;28;20037;-52
2022/12/14 13:11:00;;;;;;;10.30;9.60;;;;;;;;;;5023583;28;20395;-52
2022/12/14 13:13:29;;;;;;;10.13;9.38;;;;;;;;;;5017072;28;20511;-54
2022/12/14 13:16:16;;;;;;;11.63;10.77;;;;;;;;;;5014510;28;20079;-54
2022/12/14 13:18:49;;;;;;;9.98;9.27;;;;;;;;;;5013824;28;20038;-54
2022/12/14 13:21:40;;;;;;;12.20;11.10;;;;;;;;;;5014293;28;20441;-53
2022/12/14 13:24:16;;;;;;;10.43;9.73;;;;;;;;;;5018515;28;20603;-54
2022/12/14 13:27:04;;;;;;;10.63;9.80;;;;;;;;;;5013986;28;20037;-53
2022/12/14 13:29:55;;;;;;;10.15;9.43;;;;;;;;;;5017954;28;20059;-54
2022/12/14 13:32:50;;;;;;;11.68;10.77;;;;;;;;;;5018075;28;20034;-54
2022/12/14 13:35:31;;;;;;;11.25;10.45;;;;;;;;;;5016921;28;20455;-54
2022/12/14 13:38:02;;;;;;;9.80;9.10;;;;;;;;;;5016071;28;20052;-56
2022/12/14 13:40:55;;;;;;;10.52;9.57;;;;;;;;;;5017707;28;20034;-51
2022/12/14 13:43:32;;;;;;;10.68;9.98;;;;;;;;;;5016912;28;20034;-55
2022/12/14 13:46:13;;;;;;;11.80;10.68;;;;;;;;;;5014322;28;20053;-54
2022/12/14 13:48:40;;;;;;;10.35;9.65;;;;;;;;;;5016356;28;20119;-55
2022/12/14 13:51:17;;;;;;;10.68;9.73;;;;;;;;;;5017365;28;20087;-53
2022/12/14 13:53:48;;;;;;;10.75;9.95;;;;;;;;;;5019973;28;20037;-54
2022/12/14 13:56:22;;;;;;;10.20;9.50;;;;;;;;;;5013980;28;20443;-53
2022/12/14 13:58:49;;;;;;;12.23;11.13;;;;;;;;;;5019220;28;20030;-54
2022/12/14 14:01:47;;;;;;;11.52;10.68;;;;;;;;;;5016256;28;20040;-52
2022/12/14 14:04:15;;;;;;;12.50;10.13;;;;;;;;;;5013417;28;20249;-53
2022/12/14 14:06:44;;;;;;;10.50;9.70;;;;;;;;;;5015041;28;20112;-55
2022/12/14 14:09:24;;;;;;;10.85;10.05;;;;;;;;;;5014553;28;20219;-54
2022/12/14 14:12:23;;;;;;;10.55;9.65;;;;;;;;;;5017622;28;20032;-53
2022/12/14 14:15:00;;;;;;;10.15;9.45;;;;;;;;;;5017300;28;20099;-53
2022/12/14 14:17:40;;;;;;;11.52;10.70;;;;;;;;;;5012895;28;20176;-54
2022/12/14 14:20:30;;;;;;;11.80;10.90;;;;;;;;;;5014078;28;20464;-51
2022/12/14 14:23:27;;;;;;;10.10;9.48;;;;;;;;;;5014510;28;20149;-53
2022/12/14 14:26:16;;;;;;;10.20;9.50;;;;;;;;;;5012550;28;20056;-54
2022/12/14 14:28:42;;;;;;;10.35;9.65;;;;;;;;;;5014078;28;20033;-53
2022/12/14 14:31:07;;;;;;;10.75;9.75;;;;;;;;;;5016117;28;20148;-54
2022/12/14 14:33:40;;;;;;;11.45;10.55;;;;;;;;;;5015651;28;20037;-54
2022/12/14 14:36:07;;;;;;;10.40;9.70;;;;;;;;;;5015475;28;20041;-53
2022/12/14 14:38:36;;;;;;;11.02;10.07;;;;;;;;;;5015585;28;20033;-51
2022/12/14 14:41:10;;;;;;;11.43;10.48;;;;;;;;;;5016345;28;20553;-53
2022/12/14 14:43:38;;;;;;;10.65;9.95;;;;;;;;;;5016480;28;20034;-54
2022/12/14 14:46:07;;;;;;;11.07;10.27;;;;;;;;;;5011847;28;20053;-54
2022/12/14 14:48:48;;;;;;;10.48;9.68;;;;;;;;;;5011437;28;20057;-56
2022/12/14 14:51:33;;;;;;;11.90;10.98;;;;;;;;;;5014611;28;20040;-52
2022/12/14 14:54:17;;;;;;;10.68;9.90;;;;;;;;;;5016827;28;20557;-54
2022/12/14 14:56:43;;;;;;;11.98;11.07;;;;;;;;;;5012213;28;20507;-55
2022/12/14 14:59:18;;;;;;;12.07;10.98;;;;;;;;;;5015341;28;20471;-53
2022/12/14 15:01:45;;;;;;;10.95;9.98;;;;;;;;;;5015686;28;20033;-55
2022/12/14 15:04:17;;;;;;;11.65;10.80;;;;;;;;;;5015602;28;20528;-55
2022/12/14 15:06:46;;;;;;;10.50;9.80;;;;;;;;;;5015185;28;20046;-52
2022/12/14 15:09:19;;;;;;;10.93;10.13;;;;;;;;;;5016689;28;20033;-51
2022/12/14 15:11:51;;;;;;;10.30;9.60;;;;;;;;;;5014753;28;20371;-53
2022/12/14 15:14:31;;;;;;;11.65;10.68;;;;;;;;;;5013107;28;20122;-53
2022/12/14 15:16:56;;;;;;;12.32;11.38;;;;;;;;;;5014481;28;20036;-50